createdAt,value
2023-01-10T00:01:09.522Z,21.45
2023-01-10T00:06:13.705Z,13.25
2023-01-10T00:11:34.127Z,17.75
2023-01-10T00:16:37.196Z,17.17
2023-01-10T00:21:39.898Z,17.08
2023-01-10T00:26:42.739Z,17.48
2023-01-10T00:31:45.204Z,21.58
2023-01-10T00:36:48.062Z,18.80
2023-01-10T00:42:07.944Z,19.75
2023-01-10T00:47:09.391Z,13.90
2023-01-10T00:52:10.801Z,18.73
2023-01-10T00:57:12.226Z,21.45
2023-01-10T01:02:13.845Z,13.23
2023-01-10T01:07:15.378Z,16.65
2023-01-10T01:12:16.851Z,14.70
2023-01-10T01:17:18.620Z,15.15
2023-01-10T01:22:20.253Z,15.95
2023-01-10T01:27:21.676Z,16.83
2023-01-10T01:32:23.567Z,23.40
2023-01-10T01:37:25.124Z,21.15
2023-01-10T01:42:28.106Z,17.80
2023-01-10T01:47:29.658Z,20.40
2023-01-10T01:52:34.735Z,18.17
2023-01-10T01:57:36.715Z,17.80
2023-01-10T02:03:01.225Z,19.88
2023-01-10T02:08:03.312Z,20.70
2023-01-10T02:13:05.965Z,16.83
2023-01-10T02:18:07.713Z,17.27
2023-01-10T02:23:09.122Z,31.25
2023-01-10T02:28:29.240Z,22.10
2023-01-10T02:33:34.384Z,22.13
2023-01-10T02:38:38.879Z,16.27
2023-01-10T02:43:43.761Z,19.10
2023-01-10T02:48:45.966Z,22.00
2023-01-10T02:54:08.238Z,23.58
2023-01-10T02:59:33.050Z,21.75
2023-01-10T03:04:46.934Z,18.73
2023-01-10T03:10:03.531Z,19.58
2023-01-10T03:15:06.280Z,20.85
2023-01-10T03:20:08.631Z,19.63
2023-01-10T03:25:11.686Z,23.13
2023-01-10T03:30:26.224Z,28.83
2023-01-10T03:35:39.601Z,19.27
2023-01-10T03:40:51.283Z,20.63
2023-01-10T03:45:59.082Z,21.30
2023-01-10T03:51:02.623Z,17.50
2023-01-10T03:56:04.155Z,22.35
2023-01-10T04:01:05.727Z,23.42
2023-01-10T04:06:07.493Z,24.52
2023-01-10T04:11:08.918Z,26.40
2023-01-10T04:16:11.369Z,19.35
2023-01-10T04:21:12.980Z,21.45
2023-01-10T04:26:14.388Z,22.08
2023-01-10T04:31:15.864Z,23.05
2023-01-10T04:36:17.336Z,17.90
2023-01-10T04:41:18.751Z,23.48
2023-01-10T04:46:20.183Z,25.10
2023-01-10T04:51:21.932Z,25.80
2023-01-10T04:56:23.631Z,16.75
2023-01-10T05:01:25.585Z,25.30
2023-01-10T05:06:27.127Z,25.35
2023-01-10T05:11:28.574Z,26.65
2023-01-10T05:16:30.186Z,20.70
2023-01-10T05:21:31.700Z,16.08
2023-01-10T05:26:33.149Z,26.83
2023-01-10T05:31:34.591Z,17.05
2023-01-10T05:36:36.081Z,22.20
2023-01-10T05:41:37.494Z,27.80
2023-01-10T05:46:38.980Z,23.70
2023-01-10T05:51:40.475Z,21.40
2023-01-10T05:56:42.968Z,17.10
2023-01-10T06:01:44.374Z,22.40
2023-01-10T06:06:45.800Z,23.30
2023-01-10T06:11:47.227Z,20.23
2023-01-10T06:16:48.705Z,25.55
2023-01-10T06:21:50.171Z,20.23
2023-01-10T06:27:09.908Z,24.60
2023-01-10T06:32:11.606Z,20.95
2023-01-10T06:37:13.019Z,27.70
2023-01-10T06:42:14.456Z,27.27
2023-01-10T06:47:15.943Z,22.33
2023-01-10T06:57:42.537Z,20.65
2023-01-10T07:02:43.951Z,26.45
2023-01-10T07:07:45.347Z,23.13
2023-01-10T07:12:46.795Z,19.42
2023-01-10T07:17:48.291Z,24.05
2023-01-10T07:22:59.660Z,24.45
2023-01-10T07:28:01.107Z,26.00
2023-01-10T07:33:04.051Z,19.85
2023-01-10T07:38:05.588Z,19.63
2023-01-10T07:43:07.035Z,18.23
2023-01-10T07:48:09.126Z,21.92
2023-01-10T07:53:10.589Z,28.10
2023-01-10T07:58:12.023Z,21.45
2023-01-10T08:03:13.680Z,23.23
2023-01-10T08:08:16.829Z,16.58
2023-01-10T08:13:19.271Z,20.10
2023-01-10T08:18:21.424Z,22.25
2023-01-10T08:23:22.904Z,22.92
2023-01-10T08:28:24.352Z,20.65
2023-01-10T08:33:25.918Z,24.10
2023-01-10T08:38:28.252Z,21.08
2023-01-10T08:43:29.668Z,26.58
2023-01-10T08:48:31.125Z,24.67
2023-01-10T08:53:32.564Z,19.23
2023-01-10T08:58:34.104Z,18.42
2023-01-10T09:03:35.563Z,22.38
2023-01-10T09:08:37.270Z,20.33
2023-01-10T09:13:40.208Z,24.38
2023-01-10T09:18:41.909Z,17.88
2023-01-10T09:23:44.377Z,26.30
2023-01-10T09:28:48.718Z,25.00
2023-01-10T09:33:50.318Z,21.20
2023-01-10T09:38:51.996Z,25.67
2023-01-10T09:43:53.766Z,33.90
2023-01-10T09:48:55.174Z,25.23
2023-01-10T09:54:10.747Z,28.95
2023-01-10T09:59:36.254Z,43.60
2023-01-10T10:04:39.358Z,28.05
2023-01-10T10:09:40.995Z,27.42
2023-01-10T10:15:01.235Z,24.15
2023-01-10T10:25:31.107Z,30.15
2023-01-10T10:30:47.613Z,24.88
2023-01-10T10:36:12.391Z,29.30
2023-01-10T10:41:31.154Z,25.15
2023-01-10T10:46:32.705Z,18.90
2023-01-10T10:51:45.360Z,25.17
2023-01-10T10:56:47.219Z,25.77
2023-01-10T11:01:51.182Z,32.67
2023-01-10T11:06:53.570Z,22.90
2023-01-10T11:11:56.849Z,30.35
2023-01-10T11:17:17.185Z,32.50
2023-01-10T11:22:19.482Z,21.38
2023-01-10T11:27:26.453Z,25.45
2023-01-10T11:32:32.888Z,26.52
2023-01-10T11:37:35.885Z,28.50
2023-01-10T11:42:37.280Z,30.50
2023-01-10T11:47:45.329Z,29.23
2023-01-10T11:52:48.427Z,30.33
2023-01-10T11:58:16.074Z,26.85
2023-01-10T12:03:17.461Z,24.45
2023-01-10T12:08:29.762Z,29.83
2023-01-10T12:13:43.607Z,27.48
2023-01-10T12:18:45.509Z,24.42
2023-01-10T12:23:48.152Z,27.67
2023-01-10T12:28:54.200Z,22.35
2023-01-10T12:33:58.785Z,24.70
2023-01-10T12:39:14.324Z,21.85
2023-01-10T12:44:28.800Z,23.48
2023-01-10T12:49:33.051Z,19.45
2023-01-10T12:54:34.544Z,23.60
2023-01-10T12:59:38.342Z,20.85
2023-01-10T13:04:41.412Z,29.20
2023-01-10T13:09:43.019Z,30.10
2023-01-10T13:14:48.881Z,23.58
2023-01-10T13:20:08.870Z,22.38
2023-01-10T13:25:23.763Z,22.25
2023-01-10T13:30:32.910Z,18.45
2023-01-10T13:35:41.908Z,28.90
2023-01-10T13:40:55.717Z,29.60
2023-01-10T13:46:16.252Z,26.48
2023-01-10T13:51:19.072Z,20.98
2023-01-10T13:56:35.705Z,20.38
2023-01-10T14:01:57.988Z,24.63
2023-01-10T14:07:00.865Z,20.45
2023-01-10T14:12:04.016Z,20.88
2023-01-10T14:17:12.396Z,14.27
2023-01-10T14:22:29.333Z,24.42
2023-01-10T14:27:51.067Z,20.13
2023-01-10T14:32:56.880Z,20.30
2023-01-10T14:38:02.641Z,21.90
2023-01-10T14:43:06.743Z,25.65
2023-01-10T14:48:27.393Z,22.48
2023-01-10T14:53:29.940Z,21.88
2023-01-10T14:58:31.399Z,18.08
2023-01-10T15:03:32.866Z,18.15
2023-01-10T15:08:34.260Z,23.42
2023-01-10T15:13:37.429Z,25.77
2023-01-10T15:18:44.018Z,17.73
2023-01-10T15:23:46.771Z,20.77
2023-01-10T15:29:20.518Z,22.17
2023-01-10T15:34:24.219Z,21.48
2023-01-10T15:39:28.483Z,17.02
2023-01-10T15:44:35.299Z,17.25
2023-01-10T15:49:36.726Z,19.88
2023-01-10T15:54:40.240Z,15.80
2023-01-10T15:59:46.227Z,19.80
2023-01-10T16:04:49.033Z,20.75
2023-01-10T16:10:02.877Z,20.30
2023-01-10T16:15:11.208Z,17.83
2023-01-10T16:20:13.539Z,18.27
2023-01-10T16:25:24.360Z,16.17
2023-01-10T16:30:27.491Z,10.95
2023-01-10T16:35:29.004Z,13.10
2023-01-10T16:40:36.446Z,13.15
2023-01-10T16:45:38.044Z,14.35
2023-01-10T16:50:39.867Z,18.40
2023-01-10T16:55:45.449Z,10.15
2023-01-10T17:00:50.266Z,9.18
2023-01-10T17:12:01.845Z,11.45
2023-01-10T17:17:03.475Z,10.57
2023-01-10T17:22:05.659Z,9.75
2023-01-10T17:27:07.183Z,9.65
2023-01-10T17:32:08.730Z,8.40
2023-01-10T17:37:10.161Z,8.65
2023-01-10T17:42:11.577Z,8.15
2023-01-10T17:47:13.003Z,8.23
2023-01-10T17:52:14.496Z,6.03
2023-01-10T17:57:16.454Z,5.65
2023-01-10T18:02:18.360Z,7.45
2023-01-10T18:07:20.267Z,7.18
2023-01-10T18:12:21.649Z,8.65
2023-01-10T18:17:23.120Z,8.57
2023-01-10T18:22:42.985Z,7.80
2023-01-10T18:27:50.110Z,9.48
2023-01-10T18:32:53.083Z,11.32
2023-01-10T18:37:56.077Z,9.98
2023-01-10T18:42:58.554Z,12.02
2023-01-10T18:48:01.765Z,15.27
2023-01-10T18:53:03.871Z,15.63
2023-01-10T18:58:05.329Z,13.82
2023-01-10T19:03:06.804Z,13.25
2023-01-10T19:08:08.590Z,14.82
2023-01-10T19:13:09.977Z,14.68
2023-01-10T19:18:11.392Z,16.52
2023-01-10T19:23:12.841Z,15.57
2023-01-10T19:28:14.234Z,16.77
2023-01-10T19:33:15.643Z,14.73
2023-01-10T19:38:17.068Z,18.75
2023-01-10T19:43:19.119Z,19.40
2023-01-10T19:48:21.149Z,21.13
2023-01-10T19:53:27.094Z,24.65
2023-01-10T19:58:28.690Z,23.83
2023-01-10T20:03:30.092Z,25.52
2023-01-10T20:08:31.535Z,23.42
2023-01-10T20:13:33.698Z,25.65
2023-01-10T20:18:35.129Z,27.45
2023-01-10T20:23:37.694Z,23.40
2023-01-10T20:28:39.943Z,27.85
2023-01-10T20:33:41.380Z,23.42
2023-01-10T20:38:42.814Z,25.38
2023-01-10T20:43:44.361Z,21.73
2023-01-10T20:48:46.311Z,22.42
2023-01-10T20:53:48.517Z,21.30
2023-01-10T20:58:50.534Z,21.80
2023-01-10T21:03:52.127Z,25.23
2023-01-10T21:08:53.609Z,22.52
2023-01-10T21:13:55.021Z,22.10
2023-01-10T21:18:56.588Z,23.23
2023-01-10T21:23:57.976Z,21.42
2023-01-10T21:28:59.399Z,22.10
2023-01-10T21:34:00.874Z,21.02
2023-01-10T21:39:02.305Z,22.35
2023-01-10T21:44:04.797Z,20.00
2023-01-10T21:49:06.310Z,17.90
2023-01-10T21:54:07.798Z,20.70
2023-01-10T21:59:09.640Z,18.65
2023-01-10T22:04:12.660Z,20.98
2023-01-10T22:09:14.110Z,16.40
2023-01-10T22:14:15.514Z,20.23
2023-01-10T22:19:16.910Z,21.38
2023-01-10T22:24:18.642Z,19.55
2023-01-10T22:29:20.489Z,21.63
2023-01-10T22:34:22.350Z,18.77
2023-01-10T22:39:23.845Z,20.60
2023-01-10T22:44:26.800Z,18.17
2023-01-10T22:49:28.261Z,18.10
2023-01-10T22:54:29.752Z,22.20
2023-01-10T22:59:33.290Z,18.63
2023-01-10T23:04:34.721Z,18.35
2023-01-10T23:09:36.586Z,17.20
2023-01-10T23:14:38.013Z,18.33
2023-01-10T23:19:39.441Z,17.40
2023-01-10T23:24:40.812Z,18.15
2023-01-10T23:29:42.207Z,16.63
2023-01-10T23:34:43.592Z,19.75
2023-01-10T23:39:44.980Z,17.98
2023-01-10T23:44:46.417Z,16.80
2023-01-10T23:49:47.890Z,14.95
2023-01-10T23:54:49.307Z,16.85
2023-01-10T23:59:50.652Z,15.32
